sensor_id;sensor_type;location;lat;lon;timestamp;temperature;humidity
29341;DHT22;16337;59.536;13.468;2024-02-15T00:02:14;1.50;99.90
29341;DHT22;16337;59.536;13.468;2024-02-15T00:04:39;1.50;99.90
29341;DHT22;16337;59.536;13.468;2024-02-15T00:07:06;1.50;99.90
29341;DHT22;16337;59.536;13.468;2024-02-15T00:09:31;1.50;99.90
29341;DHT22;16337;59.536;13.468;2024-02-15T00:11:57;1.60;99.90
29341;DHT22;16337;59.536;13.468;2024-02-15T00:14:25;1.60;99.90
29341;DHT22;16337;59.536;13.468;2024-02-15T00:16:56;1.60;99.90
29341;DHT22;16337;59.536;13.468;2024-02-15T00:19:24;1.50;99.90
29341;DHT22;16337;59.536;13.468;2024-02-15T00:21:53;1.60;99.90
29341;DHT22;16337;59.536;13.468;2024-02-15T00:24:26;1.60;99.90
29341;DHT22;16337;59.536;13.468;2024-02-15T00:26:57;1.60;99.90
29341;DHT22;16337;59.536;13.468;2024-02-15T00:29:29;1.60;99.90
29341;DHT22;16337;59.536;13.468;2024-02-15T00:32:02;1.60;99.90
29341;DHT22;16337;59.536;13.468;2024-02-15T00:34:29;1.60;99.90
29341;DHT22;16337;59.536;13.468;2024-02-15T00:36:58;1.60;99.90
29341;DHT22;16337;59.536;13.468;2024-02-15T00:39:23;1.60;99.90
29341;DHT22;16337;59.536;13.468;2024-02-15T00:41:58;1.60;99.90
29341;DHT22;16337;59.536;13.468;2024-02-15T00:44:28;1.60;99.90
29341;DHT22;16337;59.536;13.468;2024-02-15T00:46:57;1.60;99.90
29341;DHT22;16337;59.536;13.468;2024-02-15T00:49:22;1.60;99.90
29341;DHT22;16337;59.536;13.468;2024-02-15T00:51:54;1.60;99.90
29341;DHT22;16337;59.536;13.468;2024-02-15T00:54:46;1.60;99.90
29341;DHT22;16337;59.536;13.468;2024-02-15T00:57:14;1.50;99.90
29341;DHT22;16337;59.536;13.468;2024-02-15T00:59:39;1.50;99.90
29341;DHT22;16337;59.536;13.468;2024-02-15T01:02:05;1.50;99.90
29341;DHT22;16337;59.536;13.468;2024-02-15T01:04:31;1.50;99.90
29341;DHT22;16337;59.536;13.468;2024-02-15T01:06:56;1.50;99.90
29341;DHT22;16337;59.536;13.468;2024-02-15T01:09:22;1.50;99.90
29341;DHT22;16337;59.536;13.468;2024-02-15T01:11:48;1.50;99.90
29341;DHT22;16337;59.536;13.468;2024-02-15T01:14:14;1.50;99.90
29341;DHT22;16337;59.536;13.468;2024-02-15T01:16:41;1.50;99.90
29341;DHT22;16337;59.536;13.468;2024-02-15T01:19:07;1.50;99.90
29341;DHT22;16337;59.536;13.468;2024-02-15T01:21:32;1.60;99.90
29341;DHT22;16337;59.536;13.468;2024-02-15T01:23:59;1.60;99.90
29341;DHT22;16337;59.536;13.468;2024-02-15T01:26:26;1.60;99.90
29341;DHT22;16337;59.536;13.468;2024-02-15T01:28:52;1.60;99.90
29341;DHT22;16337;59.536;13.468;2024-02-15T01:31:18;1.60;99.90
29341;DHT22;16337;59.536;13.468;2024-02-15T01:33:44;1.60;99.90
29341;DHT22;16337;59.536;13.468;2024-02-15T01:36:14;1.50;99.90
29341;DHT22;16337;59.536;13.468;2024-02-15T01:38:41;1.50;99.90
29341;DHT22;16337;59.536;13.468;2024-02-15T01:41:07;1.50;99.90
29341;DHT22;16337;59.536;13.468;2024-02-15T01:43:33;1.50;99.90
29341;DHT22;16337;59.536;13.468;2024-02-15T01:45:59;1.50;99.90
29341;DHT22;16337;59.536;13.468;2024-02-15T01:48:29;1.50;99.90
29341;DHT22;16337;59.536;13.468;2024-02-15T01:50:56;1.50;99.90
29341;DHT22;16337;59.536;13.468;2024-02-15T01:53:24;1.50;99.90
29341;DHT22;16337;59.536;13.468;2024-02-15T01:55:50;1.50;99.90
29341;DHT22;16337;59.536;13.468;2024-02-15T01:58:17;1.50;99.90
29341;DHT22;16337;59.536;13.468;2024-02-15T02:00:43;1.50;99.90
29341;DHT22;16337;59.536;13.468;2024-02-15T02:03:10;1.50;99.90
29341;DHT22;16337;59.536;13.468;2024-02-15T02:05:38;1.50;99.90
29341;DHT22;16337;59.536;13.468;2024-02-15T02:08:04;1.50;99.90
29341;DHT22;16337;59.536;13.468;2024-02-15T02:10:37;1.50;99.90
29341;DHT22;16337;59.536;13.468;2024-02-15T02:13:04;1.60;99.90
29341;DHT22;16337;59.536;13.468;2024-02-15T02:15:31;1.60;99.90
29341;DHT22;16337;59.536;13.468;2024-02-15T02:17:58;1.60;99.90
29341;DHT22;16337;59.536;13.468;2024-02-15T02:20:27;1.60;99.90
29341;DHT22;16337;59.536;13.468;2024-02-15T02:23:02;1.60;99.90
29341;DHT22;16337;59.536;13.468;2024-02-15T02:25:32;1.50;99.90
29341;DHT22;16337;59.536;13.468;2024-02-15T02:27:59;1.50;99.90
29341;DHT22;16337;59.536;13.468;2024-02-15T02:30:25;1.60;99.90
29341;DHT22;16337;59.536;13.468;2024-02-15T02:32:55;1.60;99.90
29341;DHT22;16337;59.536;13.468;2024-02-15T02:35:22;1.60;99.90
29341;DHT22;16337;59.536;13.468;2024-02-15T02:37:48;1.60;99.90
29341;DHT22;16337;59.536;13.468;2024-02-15T02:40:14;1.60;99.90
29341;DHT22;16337;59.536;13.468;2024-02-15T02:42:50;1.60;99.90
29341;DHT22;16337;59.536;13.468;2024-02-15T02:45:19;1.60;99.90
29341;DHT22;16337;59.536;13.468;2024-02-15T02:47:48;1.60;99.90
29341;DHT22;16337;59.536;13.468;2024-02-15T02:50:13;1.60;99.90
29341;DHT22;16337;59.536;13.468;2024-02-15T02:52:39;1.60;99.90
29341;DHT22;16337;59.536;13.468;2024-02-15T02:55:06;1.70;99.90
29341;DHT22;16337;59.536;13.468;2024-02-15T02:57:38;1.60;99.90
29341;DHT22;16337;59.536;13.468;2024-02-15T03:00:10;1.60;99.90
29341;DHT22;16337;59.536;13.468;2024-02-15T03:02:42;1.60;99.90
29341;DHT22;16337;59.536;13.468;2024-02-15T03:05:09;1.60;99.90
29341;DHT22;16337;59.536;13.468;2024-02-15T03:07:37;1.60;99.90
29341;DHT22;16337;59.536;13.468;2024-02-15T03:10:06;1.60;99.90
29341;DHT22;16337;59.536;13.468;2024-02-15T03:12:37;1.60;99.90
29341;DHT22;16337;59.536;13.468;2024-02-15T03:15:07;1.60;99.90
29341;DHT22;16337;59.536;13.468;2024-02-15T03:17:41;1.60;99.90
29341;DHT22;16337;59.536;13.468;2024-02-15T03:20:11;1.60;99.90
29341;DHT22;16337;59.536;13.468;2024-02-15T03:22:55;1.60;99.90
29341;DHT22;16337;59.536;13.468;2024-02-15T03:25:21;1.60;99.90
29341;DHT22;16337;59.536;13.468;2024-02-15T03:27:49;1.60;99.90
29341;DHT22;16337;59.536;13.468;2024-02-15T03:30:17;1.60;99.90
29341;DHT22;16337;59.536;13.468;2024-02-15T03:32:45;1.60;99.90
29341;DHT22;16337;59.536;13.468;2024-02-15T03:35:11;1.60;99.90
29341;DHT22;16337;59.536;13.468;2024-02-15T03:37:40;1.60;99.90
29341;DHT22;16337;59.536;13.468;2024-02-15T03:40:07;1.60;99.90
29341;DHT22;16337;59.536;13.468;2024-02-15T03:42:34;1.60;99.90
29341;DHT22;16337;59.536;13.468;2024-02-15T03:45:03;1.60;99.90
29341;DHT22;16337;59.536;13.468;2024-02-15T03:47:29;1.60;99.90
29341;DHT22;16337;59.536;13.468;2024-02-15T03:49:54;1.60;99.90
29341;DHT22;16337;59.536;13.468;2024-02-15T03:52:21;1.60;99.90
29341;DHT22;16337;59.536;13.468;2024-02-15T03:54:47;1.60;99.90
29341;DHT22;16337;59.536;13.468;2024-02-15T03:57:13;1.60;99.90
29341;DHT22;16337;59.536;13.468;2024-02-15T03:59:38;1.60;99.90
29341;DHT22;16337;59.536;13.468;2024-02-15T04:02:05;1.60;99.90
29341;DHT22;16337;59.536;13.468;2024-02-15T04:04:37;1.60;99.90
29341;DHT22;16337;59.536;13.468;2024-02-15T04:07:02;1.70;99.90
29341;DHT22;16337;59.536;13.468;2024-02-15T04:09:28;1.60;99.90
29341;DHT22;16337;59.536;13.468;2024-02-15T04:11:54;1.60;99.90
29341;DHT22;16337;59.536;13.468;2024-02-15T04:14:22;1.70;99.90
29341;DHT22;16337;59.536;13.468;2024-02-15T04:16:48;1.60;99.90
29341;DHT22;16337;59.536;13.468;2024-02-15T04:19:14;1.60;99.90
29341;DHT22;16337;59.536;13.468;2024-02-15T04:21:39;1.60;99.90
29341;DHT22;16337;59.536;13.468;2024-02-15T04:24:06;1.60;99.90
29341;DHT22;16337;59.536;13.468;2024-02-15T04:26:32;1.60;99.90
29341;DHT22;16337;59.536;13.468;2024-02-15T04:28:58;1.60;99.90
29341;DHT22;16337;59.536;13.468;2024-02-15T04:31:24;1.60;99.90
29341;DHT22;16337;59.536;13.468;2024-02-15T04:33:54;1.60;99.90
29341;DHT22;16337;59.536;13.468;2024-02-15T04:36:20;1.60;99.90
29341;DHT22;16337;59.536;13.468;2024-02-15T04:38:52;1.70;99.90
29341;DHT22;16337;59.536;13.468;2024-02-15T04:41:18;1.70;99.90
29341;DHT22;16337;59.536;13.468;2024-02-15T04:43:50;1.70;99.90
29341;DHT22;16337;59.536;13.468;2024-02-15T04:46:17;1.70;99.90
29341;DHT22;16337;59.536;13.468;2024-02-15T04:48:48;1.70;99.90
29341;DHT22;16337;59.536;13.468;2024-02-15T04:51:17;1.70;99.90
29341;DHT22;16337;59.536;13.468;2024-02-15T04:53:46;1.70;99.90
29341;DHT22;16337;59.536;13.468;2024-02-15T04:56:12;1.80;99.90
29341;DHT22;16337;59.536;13.468;2024-02-15T04:58:42;1.80;99.90
29341;DHT22;16337;59.536;13.468;2024-02-15T05:01:14;1.80;99.90
29341;DHT22;16337;59.536;13.468;2024-02-15T05:03:40;1.80;99.90
29341;DHT22;16337;59.536;13.468;2024-02-15T05:06:05;1.80;99.90
29341;DHT22;16337;59.536;13.468;2024-02-15T05:08:33;1.80;99.90
29341;DHT22;16337;59.536;13.468;2024-02-15T05:11:00;1.80;99.90
29341;DHT22;16337;59.536;13.468;2024-02-15T05:13:26;1.80;99.90
29341;DHT22;16337;59.536;13.468;2024-02-15T05:15:51;1.80;99.90
29341;DHT22;16337;59.536;13.468;2024-02-15T05:18:17;1.80;99.90
29341;DHT22;16337;59.536;13.468;2024-02-15T05:20:43;1.80;99.90
29341;DHT22;16337;59.536;13.468;2024-02-15T05:23:09;1.80;99.90
29341;DHT22;16337;59.536;13.468;2024-02-15T05:25:35;1.80;99.90
29341;DHT22;16337;59.536;13.468;2024-02-15T05:28:01;1.80;99.90
29341;DHT22;16337;59.536;13.468;2024-02-15T05:30:27;1.80;99.90
29341;DHT22;16337;59.536;13.468;2024-02-15T05:32:53;1.80;99.90
29341;DHT22;16337;59.536;13.468;2024-02-15T05:35:19;1.80;99.90
29341;DHT22;16337;59.536;13.468;2024-02-15T05:37:44;1.80;99.90
29341;DHT22;16337;59.536;13.468;2024-02-15T05:40:11;1.80;99.90
29341;DHT22;16337;59.536;13.468;2024-02-15T05:42:43;1.80;99.90
29341;DHT22;16337;59.536;13.468;2024-02-15T05:47:55;1.80;99.90
29341;DHT22;16337;59.536;13.468;2024-02-15T05:50:21;1.80;99.90
29341;DHT22;16337;59.536;13.468;2024-02-15T05:52:47;1.80;99.90
29341;DHT22;16337;59.536;13.468;2024-02-15T05:55:13;1.80;99.90
29341;DHT22;16337;59.536;13.468;2024-02-15T05:57:45;1.80;99.90
29341;DHT22;16337;59.536;13.468;2024-02-15T06:00:11;1.80;99.90
29341;DHT22;16337;59.536;13.468;2024-02-15T06:02:37;1.80;99.90
29341;DHT22;16337;59.536;13.468;2024-02-15T06:05:04;1.80;99.90
29341;DHT22;16337;59.536;13.468;2024-02-15T06:07:30;1.80;99.90
29341;DHT22;16337;59.536;13.468;2024-02-15T06:09:58;1.80;99.90
29341;DHT22;16337;59.536;13.468;2024-02-15T06:12:31;1.80;99.90
29341;DHT22;16337;59.536;13.468;2024-02-15T06:14:57;1.80;99.90
29341;DHT22;16337;59.536;13.468;2024-02-15T06:17:23;1.80;99.90
29341;DHT22;16337;59.536;13.468;2024-02-15T06:19:49;1.80;99.90
29341;DHT22;16337;59.536;13.468;2024-02-15T06:22:15;1.80;99.90
29341;DHT22;16337;59.536;13.468;2024-02-15T06:24:40;1.90;99.90
29341;DHT22;16337;59.536;13.468;2024-02-15T06:27:09;1.80;99.90
29341;DHT22;16337;59.536;13.468;2024-02-15T06:29:35;1.80;99.90
29341;DHT22;16337;59.536;13.468;2024-02-15T06:32:19;1.80;99.90
29341;DHT22;16337;59.536;13.468;2024-02-15T06:35:04;1.80;99.90
29341;DHT22;16337;59.536;13.468;2024-02-15T06:37:48;1.90;99.90
29341;DHT22;16337;59.536;13.468;2024-02-15T06:40:32;1.80;99.90
29341;DHT22;16337;59.536;13.468;2024-02-15T06:42:58;1.90;99.90
29341;DHT22;16337;59.536;13.468;2024-02-15T06:45:24;1.80;99.90
29341;DHT22;16337;59.536;13.468;2024-02-15T06:47:49;1.90;99.90
29341;DHT22;16337;59.536;13.468;2024-02-15T06:50:15;1.90;99.90
29341;DHT22;16337;59.536;13.468;2024-02-15T06:52:42;1.90;99.90
29341;DHT22;16337;59.536;13.468;2024-02-15T06:55:09;1.90;99.90
29341;DHT22;16337;59.536;13.468;2024-02-15T06:57:38;1.90;99.90
29341;DHT22;16337;59.536;13.468;2024-02-15T07:00:06;2.00;99.90
29341;DHT22;16337;59.536;13.468;2024-02-15T07:02:36;2.00;99.90
29341;DHT22;16337;59.536;13.468;2024-02-15T07:05:02;2.00;99.90
29341;DHT22;16337;59.536;13.468;2024-02-15T07:07:30;2.00;99.90
29341;DHT22;16337;59.536;13.468;2024-02-15T07:09:57;2.10;99.90
29341;DHT22;16337;59.536;13.468;2024-02-15T07:12:23;2.10;99.90
29341;DHT22;16337;59.536;13.468;2024-02-15T07:14:49;2.10;99.90
29341;DHT22;16337;59.536;13.468;2024-02-15T07:17:14;2.10;99.90
29341;DHT22;16337;59.536;13.468;2024-02-15T07:19:43;2.20;99.90
29341;DHT22;16337;59.536;13.468;2024-02-15T07:22:10;2.20;99.90
29341;DHT22;16337;59.536;13.468;2024-02-15T07:24:35;2.20;99.90
29341;DHT22;16337;59.536;13.468;2024-02-15T07:27:04;2.30;99.90
29341;DHT22;16337;59.536;13.468;2024-02-15T07:29:30;2.30;99.90
29341;DHT22;16337;59.536;13.468;2024-02-15T07:31:58;2.30;99.90
29341;DHT22;16337;59.536;13.468;2024-02-15T07:34:26;2.30;99.90
29341;DHT22;16337;59.536;13.468;2024-02-15T07:36:52;2.20;99.90
29341;DHT22;16337;59.536;13.468;2024-02-15T07:39:17;2.20;99.90
29341;DHT22;16337;59.536;13.468;2024-02-15T07:41:51;2.30;99.90
29341;DHT22;16337;59.536;13.468;2024-02-15T07:44:16;2.40;99.90
29341;DHT22;16337;59.536;13.468;2024-02-15T07:46:43;2.40;99.90
29341;DHT22;16337;59.536;13.468;2024-02-15T07:49:09;2.40;99.90
29341;DHT22;16337;59.536;13.468;2024-02-15T07:51:35;2.50;99.90
29341;DHT22;16337;59.536;13.468;2024-02-15T07:54:01;2.50;99.90
29341;DHT22;16337;59.536;13.468;2024-02-15T07:56:27;2.60;99.90
29341;DHT22;16337;59.536;13.468;2024-02-15T07:58:53;2.60;99.90
29341;DHT22;16337;59.536;13.468;2024-02-15T08:01:19;2.70;99.90
29341;DHT22;16337;59.536;13.468;2024-02-15T08:03:48;2.70;99.90
29341;DHT22;16337;59.536;13.468;2024-02-15T08:06:15;2.60;99.90
29341;DHT22;16337;59.536;13.468;2024-02-15T08:08:46;2.60;99.90
29341;DHT22;16337;59.536;13.468;2024-02-15T08:11:12;2.60;99.90
29341;DHT22;16337;59.536;13.468;2024-02-15T08:13:46;2.60;99.90
29341;DHT22;16337;59.536;13.468;2024-02-15T08:16:19;2.70;99.90
29341;DHT22;16337;59.536;13.468;2024-02-15T08:18:46;2.70;99.90
29341;DHT22;16337;59.536;13.468;2024-02-15T08:21:12;2.80;99.90
29341;DHT22;16337;59.536;13.468;2024-02-15T08:23:38;2.90;99.90
29341;DHT22;16337;59.536;13.468;2024-02-15T08:26:04;2.90;99.90
29341;DHT22;16337;59.536;13.468;2024-02-15T08:28:30;3.00;99.90
29341;DHT22;16337;59.536;13.468;2024-02-15T08:30:56;3.00;99.90
29341;DHT22;16337;59.536;13.468;2024-02-15T08:33:23;2.90;99.90
29341;DHT22;16337;59.536;13.468;2024-02-15T08:35:49;2.90;99.90
29341;DHT22;16337;59.536;13.468;2024-02-15T08:38:15;2.90;99.90
29341;DHT22;16337;59.536;13.468;2024-02-15T08:40:41;2.80;99.90
29341;DHT22;16337;59.536;13.468;2024-02-15T08:43:10;2.70;99.90
29341;DHT22;16337;59.536;13.468;2024-02-15T08:45:36;2.70;99.90
29341;DHT22;16337;59.536;13.468;2024-02-15T08:48:01;2.60;99.90
29341;DHT22;16337;59.536;13.468;2024-02-15T08:50:30;2.60;99.90
29341;DHT22;16337;59.536;13.468;2024-02-15T08:52:55;2.60;99.90
29341;DHT22;16337;59.536;13.468;2024-02-15T08:55:22;2.50;99.90
29341;DHT22;16337;59.536;13.468;2024-02-15T08:57:52;2.50;99.90
29341;DHT22;16337;59.536;13.468;2024-02-15T09:00:18;2.60;99.90
29341;DHT22;16337;59.536;13.468;2024-02-15T09:02:45;2.60;99.90
29341;DHT22;16337;59.536;13.468;2024-02-15T09:05:10;2.60;99.90
29341;DHT22;16337;59.536;13.468;2024-02-15T09:07:45;2.60;99.90
29341;DHT22;16337;59.536;13.468;2024-02-15T09:10:16;2.60;99.90
29341;DHT22;16337;59.536;13.468;2024-02-15T09:12:44;2.60;99.90
29341;DHT22;16337;59.536;13.468;2024-02-15T09:15:12;2.60;99.90
29341;DHT22;16337;59.536;13.468;2024-02-15T09:17:38;2.60;99.90
29341;DHT22;16337;59.536;13.468;2024-02-15T09:20:11;2.60;99.90
29341;DHT22;16337;59.536;13.468;2024-02-15T09:25:07;2.70;99.90
29341;DHT22;16337;59.536;13.468;2024-02-15T09:27:34;2.70;99.90
29341;DHT22;16337;59.536;13.468;2024-02-15T09:29:59;2.70;99.90
29341;DHT22;16337;59.536;13.468;2024-02-15T09:32:25;2.70;99.90
29341;DHT22;16337;59.536;13.468;2024-02-15T09:34:51;2.80;99.90
29341;DHT22;16337;59.536;13.468;2024-02-15T09:37:16;2.80;99.90
29341;DHT22;16337;59.536;13.468;2024-02-15T09:39:42;2.80;99.90
29341;DHT22;16337;59.536;13.468;2024-02-15T09:42:08;2.70;99.90
29341;DHT22;16337;59.536;13.468;2024-02-15T09:44:34;2.80;99.90
29341;DHT22;16337;59.536;13.468;2024-02-15T09:47:04;2.70;99.90
29341;DHT22;16337;59.536;13.468;2024-02-15T09:49:35;2.70;99.90
29341;DHT22;16337;59.536;13.468;2024-02-15T09:52:03;2.60;99.90
29341;DHT22;16337;59.536;13.468;2024-02-15T09:54:30;2.60;99.90
29341;DHT22;16337;59.536;13.468;2024-02-15T09:56:57;2.60;99.90
29341;DHT22;16337;59.536;13.468;2024-02-15T09:59:23;2.50;99.90
29341;DHT22;16337;59.536;13.468;2024-02-15T10:01:49;2.50;99.90
29341;DHT22;16337;59.536;13.468;2024-02-15T10:04:16;2.50;99.90
29341;DHT22;16337;59.536;13.468;2024-02-15T10:06:42;2.40;99.90
29341;DHT22;16337;59.536;13.468;2024-02-15T10:09:27;2.30;99.90
29341;DHT22;16337;59.536;13.468;2024-02-15T10:11:54;2.30;99.90
29341;DHT22;16337;59.536;13.468;2024-02-15T10:14:22;2.40;99.90
29341;DHT22;16337;59.536;13.468;2024-02-15T10:16:48;2.60;99.90
29341;DHT22;16337;59.536;13.468;2024-02-15T10:19:14;2.70;99.90
29341;DHT22;16337;59.536;13.468;2024-02-15T10:21:41;2.80;99.90
29341;DHT22;16337;59.536;13.468;2024-02-15T10:24:07;2.80;99.90
29341;DHT22;16337;59.536;13.468;2024-02-15T10:26:35;2.80;99.90
29341;DHT22;16337;59.536;13.468;2024-02-15T10:29:08;2.90;99.90
29341;DHT22;16337;59.536;13.468;2024-02-15T10:31:38;2.90;99.90
29341;DHT22;16337;59.536;13.468;2024-02-15T10:34:05;3.00;99.90
29341;DHT22;16337;59.536;13.468;2024-02-15T10:36:36;3.00;99.90
29341;DHT22;16337;59.536;13.468;2024-02-15T10:39:13;2.80;99.90
29341;DHT22;16337;59.536;13.468;2024-02-15T10:41:53;2.60;99.90
29341;DHT22;16337;59.536;13.468;2024-02-15T10:44:24;2.60;99.90
29341;DHT22;16337;59.536;13.468;2024-02-15T10:46:52;2.70;99.90
29341;DHT22;16337;59.536;13.468;2024-02-15T10:49:24;2.80;99.90
29341;DHT22;16337;59.536;13.468;2024-02-15T10:57:09;2.70;99.90
29341;DHT22;16337;59.536;13.468;2024-02-15T10:59:37;2.80;99.90
29341;DHT22;16337;59.536;13.468;2024-02-15T11:04:43;3.10;99.90
29341;DHT22;16337;59.536;13.468;2024-02-15T11:07:10;3.00;99.90
29341;DHT22;16337;59.536;13.468;2024-02-15T11:09:37;3.00;99.90
29341;DHT22;16337;59.536;13.468;2024-02-15T11:12:05;3.00;99.90
29341;DHT22;16337;59.536;13.468;2024-02-15T11:14:32;2.90;99.90
29341;DHT22;16337;59.536;13.468;2024-02-15T11:17:01;2.90;99.90
29341;DHT22;16337;59.536;13.468;2024-02-15T11:19:40;2.80;99.90
29341;DHT22;16337;59.536;13.468;2024-02-15T11:22:10;2.80;99.90
29341;DHT22;16337;59.536;13.468;2024-02-15T11:24:37;2.80;99.90
29341;DHT22;16337;59.536;13.468;2024-02-15T11:27:10;2.90;99.90
29341;DHT22;16337;59.536;13.468;2024-02-15T11:29:58;2.90;99.90
29341;DHT22;16337;59.536;13.468;2024-02-15T11:35:13;3.00;99.90
29341;DHT22;16337;59.536;13.468;2024-02-15T11:40:22;2.90;99.90
29341;DHT22;16337;59.536;13.468;2024-02-15T11:42:55;3.00;99.90
29341;DHT22;16337;59.536;13.468;2024-02-15T11:45:27;2.90;99.90
29341;DHT22;16337;59.536;13.468;2024-02-15T11:47:58;2.90;99.90
29341;DHT22;16337;59.536;13.468;2024-02-15T11:50:27;2.80;99.90
29341;DHT22;16337;59.536;13.468;2024-02-15T11:53:02;2.90;99.90
29341;DHT22;16337;59.536;13.468;2024-02-15T11:55:31;2.90;99.90
29341;DHT22;16337;59.536;13.468;2024-02-15T11:57:59;2.90;99.90
29341;DHT22;16337;59.536;13.468;2024-02-15T12:00:35;2.90;99.90
29341;DHT22;16337;59.536;13.468;2024-02-15T12:03:19;3.00;99.90
29341;DHT22;16337;59.536;13.468;2024-02-15T12:06:04;3.10;99.90
29341;DHT22;16337;59.536;13.468;2024-02-15T12:08:50;3.00;99.90
29341;DHT22;16337;59.536;13.468;2024-02-15T12:11:34;2.90;99.90
29341;DHT22;16337;59.536;13.468;2024-02-15T12:14:19;2.90;99.90
29341;DHT22;16337;59.536;13.468;2024-02-15T12:19:53;3.00;99.90
29341;DHT22;16337;59.536;13.468;2024-02-15T12:22:25;3.00;99.90
29341;DHT22;16337;59.536;13.468;2024-02-15T12:25:00;3.00;99.90
29341;DHT22;16337;59.536;13.468;2024-02-15T12:27:26;3.00;99.90
29341;DHT22;16337;59.536;13.468;2024-02-15T12:29:59;3.00;99.90
29341;DHT22;16337;59.536;13.468;2024-02-15T12:32:28;3.10;99.90
29341;DHT22;16337;59.536;13.468;2024-02-15T12:35:12;3.20;99.90
29341;DHT22;16337;59.536;13.468;2024-02-15T12:37:42;3.10;99.90
29341;DHT22;16337;59.536;13.468;2024-02-15T12:42:42;3.10;99.90
29341;DHT22;16337;59.536;13.468;2024-02-15T12:45:18;3.00;99.90
29341;DHT22;16337;59.536;13.468;2024-02-15T12:47:47;3.00;99.90
29341;DHT22;16337;59.536;13.468;2024-02-15T12:57:32;3.10;99.90
29341;DHT22;16337;59.536;13.468;2024-02-15T12:59:57;3.10;99.90
29341;DHT22;16337;59.536;13.468;2024-02-15T13:13:13;3.20;99.90
29341;DHT22;16337;59.536;13.468;2024-02-15T13:15:46;3.40;99.90
29341;DHT22;16337;59.536;13.468;2024-02-15T13:18:12;3.60;99.90
29341;DHT22;16337;59.536;13.468;2024-02-15T13:20:39;3.60;99.90
29341;DHT22;16337;59.536;13.468;2024-02-15T13:23:08;3.60;99.90
29341;DHT22;16337;59.536;13.468;2024-02-15T13:25:35;3.60;99.90
29341;DHT22;16337;59.536;13.468;2024-02-15T13:28:08;3.50;99.90
29341;DHT22;16337;59.536;13.468;2024-02-15T13:30:36;3.40;99.90
29341;DHT22;16337;59.536;13.468;2024-02-15T13:33:02;3.20;99.90
29341;DHT22;16337;59.536;13.468;2024-02-15T13:35:27;3.30;99.90
29341;DHT22;16337;59.536;13.468;2024-02-15T13:37:54;3.40;99.90
29341;DHT22;16337;59.536;13.468;2024-02-15T13:40:24;3.40;99.90
29341;DHT22;16337;59.536;13.468;2024-02-15T13:42:51;3.20;99.90
29341;DHT22;16337;59.536;13.468;2024-02-15T13:45:22;3.10;99.90
29341;DHT22;16337;59.536;13.468;2024-02-15T13:47:51;3.00;99.90
29341;DHT22;16337;59.536;13.468;2024-02-15T13:50:21;3.00;99.90
29341;DHT22;16337;59.536;13.468;2024-02-15T13:52:47;2.90;99.90
29341;DHT22;16337;59.536;13.468;2024-02-15T13:55:13;2.80;99.90
29341;DHT22;16337;59.536;13.468;2024-02-15T13:57:44;2.80;99.90
29341;DHT22;16337;59.536;13.468;2024-02-15T14:00:13;2.70;99.90
29341;DHT22;16337;59.536;13.468;2024-02-15T14:02:40;2.70;99.90
29341;DHT22;16337;59.536;13.468;2024-02-15T14:05:07;2.70;99.90
29341;DHT22;16337;59.536;13.468;2024-02-15T14:07:37;2.60;99.90
29341;DHT22;16337;59.536;13.468;2024-02-15T14:10:05;2.60;99.90
29341;DHT22;16337;59.536;13.468;2024-02-15T14:12:31;2.60;99.90
29341;DHT22;16337;59.536;13.468;2024-02-15T14:14:57;2.50;99.90
29341;DHT22;16337;59.536;13.468;2024-02-15T14:17:23;2.50;99.90
29341;DHT22;16337;59.536;13.468;2024-02-15T14:19:51;2.40;99.90
29341;DHT22;16337;59.536;13.468;2024-02-15T14:22:17;2.40;99.90
29341;DHT22;16337;59.536;13.468;2024-02-15T14:24:43;2.40;99.90
29341;DHT22;16337;59.536;13.468;2024-02-15T14:27:10;2.40;99.90
29341;DHT22;16337;59.536;13.468;2024-02-15T14:29:39;2.40;99.90
29341;DHT22;16337;59.536;13.468;2024-02-15T14:32:25;2.40;99.90
29341;DHT22;16337;59.536;13.468;2024-02-15T14:35:09;2.30;99.90
29341;DHT22;16337;59.536;13.468;2024-02-15T14:37:34;2.30;99.90
29341;DHT22;16337;59.536;13.468;2024-02-15T14:40:00;2.30;99.90
29341;DHT22;16337;59.536;13.468;2024-02-15T14:42:26;2.30;99.90
29341;DHT22;16337;59.536;13.468;2024-02-15T14:44:51;2.30;99.90
29341;DHT22;16337;59.536;13.468;2024-02-15T14:47:17;2.30;99.90
29341;DHT22;16337;59.536;13.468;2024-02-15T14:49:43;2.30;99.90
29341;DHT22;16337;59.536;13.468;2024-02-15T14:52:09;2.30;99.90
29341;DHT22;16337;59.536;13.468;2024-02-15T14:54:35;2.30;99.90
29341;DHT22;16337;59.536;13.468;2024-02-15T14:57:01;2.30;99.90
29341;DHT22;16337;59.536;13.468;2024-02-15T14:59:27;2.30;99.90
29341;DHT22;16337;59.536;13.468;2024-02-15T15:01:53;2.30;99.90
29341;DHT22;16337;59.536;13.468;2024-02-15T15:04:18;2.30;99.90
29341;DHT22;16337;59.536;13.468;2024-02-15T15:06:45;2.20;99.90
29341;DHT22;16337;59.536;13.468;2024-02-15T15:09:29;2.20;99.90
29341;DHT22;16337;59.536;13.468;2024-02-15T15:12:13;2.20;99.90
29341;DHT22;16337;59.536;13.468;2024-02-15T15:14:57;2.20;99.90
29341;DHT22;16337;59.536;13.468;2024-02-15T15:17:24;2.20;99.90
29341;DHT22;16337;59.536;13.468;2024-02-15T15:19:52;2.20;99.90
29341;DHT22;16337;59.536;13.468;2024-02-15T15:22:18;2.20;99.90
29341;DHT22;16337;59.536;13.468;2024-02-15T15:24:45;2.10;99.90
29341;DHT22;16337;59.536;13.468;2024-02-15T15:27:11;2.10;99.90
29341;DHT22;16337;59.536;13.468;2024-02-15T15:29:37;2.20;99.90
29341;DHT22;16337;59.536;13.468;2024-02-15T15:32:03;2.20;99.90
29341;DHT22;16337;59.536;13.468;2024-02-15T15:34:30;2.10;99.90
29341;DHT22;16337;59.536;13.468;2024-02-15T15:36:55;2.10;99.90
29341;DHT22;16337;59.536;13.468;2024-02-15T15:39:22;2.10;99.90
29341;DHT22;16337;59.536;13.468;2024-02-15T15:41:50;2.10;99.90
29341;DHT22;16337;59.536;13.468;2024-02-15T15:44:19;2.10;99.90
29341;DHT22;16337;59.536;13.468;2024-02-15T15:46:45;2.10;99.90
29341;DHT22;16337;59.536;13.468;2024-02-15T15:49:11;2.10;99.90
29341;DHT22;16337;59.536;13.468;2024-02-15T15:51:41;2.10;99.90
29341;DHT22;16337;59.536;13.468;2024-02-15T15:54:08;2.00;99.90
29341;DHT22;16337;59.536;13.468;2024-02-15T15:56:34;2.10;99.90
29341;DHT22;16337;59.536;13.468;2024-02-15T15:58:59;2.00;99.90
29341;DHT22;16337;59.536;13.468;2024-02-15T16:01:25;2.10;99.90
29341;DHT22;16337;59.536;13.468;2024-02-15T16:03:51;2.10;99.90
29341;DHT22;16337;59.536;13.468;2024-02-15T16:06:17;2.10;99.90
29341;DHT22;16337;59.536;13.468;2024-02-15T16:08:43;2.10;99.90
29341;DHT22;16337;59.536;13.468;2024-02-15T16:11:11;2.00;99.90
29341;DHT22;16337;59.536;13.468;2024-02-15T16:13:39;2.10;99.90
29341;DHT22;16337;59.536;13.468;2024-02-15T16:16:06;2.10;99.90
29341;DHT22;16337;59.536;13.468;2024-02-15T16:18:34;2.00;99.90
29341;DHT22;16337;59.536;13.468;2024-02-15T16:20:59;2.10;99.90